createdAt,value
2019-04-06T00:01:54.280Z,12.77
2019-04-06T00:04:23.917Z,13.13
2019-04-06T00:06:53.585Z,13.10
2019-04-06T00:09:23.216Z,12.97
2019-04-06T00:11:52.848Z,12.67
2019-04-06T00:14:22.533Z,11.87
2019-04-06T00:16:52.162Z,12.00
2019-04-06T00:19:21.795Z,10.87
2019-04-06T00:21:51.567Z,10.60
2019-04-06T00:24:21.200Z,10.33
2019-04-06T00:26:50.909Z,10.43
2019-04-06T00:29:20.674Z,11.10
2019-04-06T00:31:52.285Z,11.27
2019-04-06T00:34:22.705Z,11.57
2019-04-06T00:36:52.469Z,11.00
2019-04-06T00:39:22.171Z,11.30
2019-04-06T00:41:52.162Z,10.87
2019-04-06T00:44:21.839Z,10.07
2019-04-06T00:46:51.470Z,10.40
2019-04-06T00:49:21.130Z,9.67
2019-04-06T00:51:51.276Z,9.50
2019-04-06T00:54:20.897Z,9.37
2019-04-06T00:56:50.578Z,9.40
2019-04-06T00:59:20.234Z,10.07
2019-04-06T01:01:50.988Z,10.13
2019-04-06T01:04:20.595Z,11.53
2019-04-06T01:06:50.991Z,13.13
2019-04-06T01:09:20.693Z,15.80
2019-04-06T01:11:50.342Z,18.87
2019-04-06T01:14:20.024Z,15.63
2019-04-06T01:16:49.686Z,17.37
2019-04-06T01:19:19.483Z,16.00
2019-04-06T01:21:49.154Z,14.67
2019-04-06T01:24:18.784Z,15.00
2019-04-06T01:26:48.405Z,14.30
2019-04-06T01:29:18.092Z,14.07
2019-04-06T01:31:47.718Z,14.23
2019-04-06T01:34:17.333Z,14.23
2019-04-06T01:36:48.467Z,14.27
2019-04-06T01:39:18.384Z,13.20
2019-04-06T01:41:48.026Z,12.93
2019-04-06T01:44:17.729Z,13.40
2019-04-06T01:46:47.335Z,13.00
2019-04-06T01:49:16.988Z,11.57
2019-04-06T01:51:46.661Z,11.33
2019-04-06T01:54:16.299Z,11.57
2019-04-06T01:56:45.987Z,12.03
2019-04-06T01:59:15.697Z,11.33
2019-04-06T02:01:50.026Z,11.20
2019-04-06T02:04:20.265Z,11.33
2019-04-06T02:06:49.918Z,10.70
2019-04-06T02:09:19.548Z,11.07
2019-04-06T02:11:49.176Z,10.77
2019-04-06T02:14:18.937Z,11.10
2019-04-06T02:16:48.677Z,11.73
2019-04-06T02:19:18.243Z,11.87
2019-04-06T02:21:47.930Z,11.57
2019-04-06T02:24:17.684Z,11.90
2019-04-06T02:26:47.264Z,12.27
2019-04-06T02:29:17.204Z,11.80
2019-04-06T02:32:04.985Z,11.20
2019-04-06T02:34:39.340Z,12.13
2019-04-06T02:37:26.958Z,12.40
2019-04-06T02:40:07.457Z,11.37
2019-04-06T02:42:49.052Z,12.60
2019-04-06T02:45:19.295Z,10.50
2019-04-06T02:47:48.915Z,10.33
2019-04-06T02:50:18.907Z,10.10
2019-04-06T02:52:48.633Z,9.67
2019-04-06T02:55:18.547Z,9.87
2019-04-06T02:57:48.188Z,10.10
2019-04-06T03:00:18.001Z,10.60
2019-04-06T03:02:47.620Z,9.70
2019-04-06T03:05:17.278Z,10.30
2019-04-06T03:07:47.177Z,9.77
2019-04-06T03:10:16.896Z,10.30
2019-04-06T03:12:46.528Z,9.80
2019-04-06T03:15:16.321Z,10.17
2019-04-06T03:17:47.586Z,9.67
2019-04-06T03:20:17.211Z,9.80
2019-04-06T03:22:47.605Z,9.20
2019-04-06T03:25:17.231Z,9.70
2019-04-06T03:27:46.857Z,9.83
2019-04-06T03:30:17.078Z,9.13
2019-04-06T03:32:46.802Z,10.20
2019-04-06T03:35:16.453Z,10.07
2019-04-06T03:37:46.209Z,10.20
2019-04-06T03:40:17.413Z,10.80
2019-04-06T03:42:47.955Z,10.10
2019-04-06T03:45:19.281Z,10.77
2019-04-06T03:47:48.900Z,10.67
2019-04-06T03:50:18.529Z,10.23
2019-04-06T03:52:48.291Z,9.80
2019-04-06T03:55:17.897Z,10.43
2019-04-06T03:57:47.529Z,10.43
2019-04-06T04:00:17.333Z,10.80
2019-04-06T04:02:48.638Z,11.03
2019-04-06T04:05:18.525Z,10.60
2019-04-06T04:07:48.229Z,11.20
2019-04-06T04:10:29.726Z,10.50
2019-04-06T04:12:59.679Z,11.23
2019-04-06T04:15:29.974Z,12.03
2019-04-06T04:17:59.672Z,12.30
2019-04-06T04:20:29.542Z,12.10
2019-04-06T04:22:59.204Z,11.67
2019-04-06T04:25:28.838Z,12.30
2019-04-06T04:27:58.989Z,12.30
2019-04-06T04:30:32.934Z,12.37
2019-04-06T04:32:59.948Z,12.03
2019-04-06T04:35:29.765Z,12.60
2019-04-06T04:37:59.392Z,12.97
2019-04-06T04:40:29.156Z,12.60
2019-04-06T04:42:58.877Z,13.23
2019-04-06T04:45:28.474Z,12.73
2019-04-06T04:47:58.560Z,13.30
2019-04-06T04:50:28.233Z,12.67
2019-04-06T04:52:57.873Z,12.70
2019-04-06T04:55:27.511Z,12.97
2019-04-06T04:57:57.172Z,12.63
2019-04-06T05:00:27.075Z,13.90
2019-04-06T05:02:56.865Z,12.80
2019-04-06T05:05:26.483Z,13.80
2019-04-06T05:07:57.086Z,13.77
2019-04-06T05:10:26.808Z,14.17
2019-04-06T05:12:56.464Z,15.73
2019-04-06T05:16:06.329Z,76.83
2019-04-06T05:18:35.990Z,47.73
2019-04-06T05:21:05.617Z,39.70
2019-04-06T05:23:35.411Z,16.23
2019-04-06T05:26:06.398Z,94.07
2019-04-06T05:28:39.285Z,66.40
2019-04-06T05:31:08.954Z,18.03
2019-04-06T05:33:39.173Z,15.30
2019-04-06T05:36:08.985Z,15.87
2019-04-06T05:38:38.704Z,16.43
2019-04-06T05:41:08.658Z,16.10
2019-04-06T05:43:38.292Z,16.47
2019-04-06T05:46:08.092Z,18.63
2019-04-06T05:48:38.015Z,16.37
2019-04-06T05:51:08.502Z,16.20
2019-04-06T05:53:38.706Z,15.17
2019-04-06T05:56:08.376Z,16.93
2019-04-06T05:58:40.632Z,16.73
2019-04-06T06:01:11.179Z,16.43
2019-04-06T06:03:41.611Z,16.07
2019-04-06T06:06:12.860Z,16.07
2019-04-06T06:08:42.637Z,17.03
2019-04-06T06:11:12.329Z,16.97
2019-04-06T06:13:42.029Z,16.30
2019-04-06T06:16:12.347Z,16.10
2019-04-06T06:18:42.086Z,14.47
2019-04-06T06:21:11.724Z,14.63
2019-04-06T06:23:41.357Z,13.53
2019-04-06T06:26:11.262Z,13.50
2019-04-06T06:28:40.894Z,13.00
2019-04-06T06:31:10.748Z,13.90
2019-04-06T06:33:40.366Z,14.67
2019-04-06T06:36:13.125Z,51.10
2019-04-06T06:38:43.034Z,61.33
2019-04-06T06:41:12.767Z,13.93
2019-04-06T06:43:45.059Z,12.60
2019-04-06T06:46:13.985Z,12.70
2019-04-06T06:48:45.872Z,12.87
2019-04-06T06:51:15.176Z,12.77
2019-04-06T06:53:44.818Z,12.73
2019-04-06T06:56:14.487Z,12.43
2019-04-06T06:58:44.118Z,12.67
2019-04-06T07:01:13.841Z,12.80
2019-04-06T07:03:43.639Z,13.00
2019-04-06T07:06:13.277Z,12.90
2019-04-06T07:08:42.947Z,13.03
2019-04-06T07:11:12.691Z,13.47
2019-04-06T07:13:42.324Z,12.70
2019-04-06T07:16:12.031Z,13.00
2019-04-06T07:18:41.823Z,12.57
2019-04-06T07:21:12.045Z,12.57
2019-04-06T07:23:41.926Z,12.73
2019-04-06T07:26:11.597Z,12.93
2019-04-06T07:28:41.250Z,12.87
2019-04-06T07:31:10.884Z,12.17
2019-04-06T07:33:40.540Z,12.27
2019-04-06T07:36:10.233Z,11.70
2019-04-06T07:38:39.955Z,12.70
2019-04-06T07:41:09.629Z,13.07
2019-04-06T07:43:39.261Z,12.73
2019-04-06T07:46:08.903Z,11.67
2019-04-06T07:48:38.612Z,12.30
2019-04-06T07:51:08.283Z,11.93
2019-04-06T07:53:37.915Z,64.30
2019-04-06T07:56:07.596Z,45.00
2019-04-06T07:58:48.011Z,13.07
2019-04-06T08:01:10.443Z,12.80
2019-04-06T08:03:40.199Z,18.80
2019-04-06T08:06:09.867Z,13.23
2019-04-06T08:08:39.926Z,12.70
2019-04-06T08:11:09.545Z,12.30
2019-04-06T08:13:39.202Z,12.77
2019-04-06T08:16:08.839Z,12.37
2019-04-06T08:18:40.308Z,12.10
2019-04-06T08:21:11.585Z,11.60
2019-04-06T08:23:41.218Z,12.20
2019-04-06T08:26:10.893Z,12.40
2019-04-06T08:28:40.573Z,12.90
2019-04-06T08:31:10.199Z,13.13
2019-04-06T08:33:39.899Z,12.57
2019-04-06T08:36:09.542Z,12.53
2019-04-06T08:38:39.372Z,12.77
2019-04-06T08:41:09.063Z,13.10
2019-04-06T08:43:38.689Z,27.63
2019-04-06T08:46:08.988Z,39.60
2019-04-06T08:48:38.655Z,12.63
2019-04-06T08:51:08.285Z,12.70
2019-04-06T08:53:37.932Z,13.60
2019-04-06T08:56:07.628Z,13.43
2019-04-06T08:58:37.809Z,12.90
2019-04-06T09:01:07.439Z,14.07
2019-04-06T09:03:37.381Z,11.87
2019-04-06T09:06:07.033Z,12.77
2019-04-06T09:08:36.739Z,12.40
2019-04-06T09:11:06.556Z,12.40
2019-04-06T09:13:36.192Z,12.60
2019-04-06T09:16:05.841Z,12.97
2019-04-06T09:18:35.530Z,116.43
2019-04-06T09:21:08.450Z,15.17
2019-04-06T09:23:38.071Z,14.73
2019-04-06T09:26:07.910Z,14.13
2019-04-06T09:28:37.606Z,13.40
2019-04-06T09:31:07.506Z,13.93
2019-04-06T09:33:37.247Z,13.10
2019-04-06T09:36:06.894Z,13.03
2019-04-06T09:38:36.594Z,13.03
2019-04-06T09:41:06.335Z,12.60
2019-04-06T09:43:36.043Z,13.00
2019-04-06T09:46:23.944Z,13.07
2019-04-06T09:48:57.836Z,12.67
2019-04-06T09:51:29.212Z,13.37
2019-04-06T09:54:09.324Z,13.43
2019-04-06T09:56:43.274Z,12.50
2019-04-06T09:59:18.003Z,16.23
2019-04-06T10:01:52.229Z,45.47
2019-04-06T10:04:23.546Z,12.60
2019-04-06T10:07:01.007Z,12.27
2019-04-06T10:09:35.323Z,12.70
2019-04-06T10:12:10.069Z,13.27
2019-04-06T10:14:58.228Z,12.67
2019-04-06T10:21:24.251Z,14.00
2019-04-06T10:24:07.590Z,11.60
2019-04-06T10:26:39.242Z,12.50
2019-04-06T10:29:15.271Z,12.20
2019-04-06T10:32:01.567Z,11.87
2019-04-06T10:34:38.523Z,250.23
2019-04-06T10:37:15.555Z,29.50
2019-04-06T10:39:55.601Z,12.60
2019-04-06T10:42:29.672Z,12.87
2019-04-06T10:45:06.980Z,12.40
2019-04-06T10:47:41.003Z,12.53
2019-04-06T10:50:12.851Z,12.03
2019-04-06T10:53:00.391Z,12.07
2019-04-06T10:55:31.706Z,12.33
2019-04-06T10:58:02.954Z,12.70
2019-04-06T11:00:50.762Z,11.70
2019-04-06T11:03:31.128Z,11.67
2019-04-06T11:06:06.405Z,12.00
2019-04-06T11:08:54.094Z,12.27
2019-04-06T11:11:27.823Z,11.50
2019-04-06T11:13:59.108Z,12.10
2019-04-06T11:16:36.199Z,12.67
2019-04-06T11:19:13.387Z,12.03
2019-04-06T11:21:53.813Z,13.13
2019-04-06T11:24:31.537Z,12.97
2019-04-06T11:27:03.158Z,13.40
2019-04-06T11:29:50.585Z,14.10
2019-04-06T11:32:37.281Z,12.27
2019-04-06T11:35:15.061Z,12.27
2019-04-06T11:37:52.048Z,13.00
2019-04-06T11:40:39.937Z,12.37
2019-04-06T11:43:14.238Z,12.43
2019-04-06T11:45:54.661Z,12.57
2019-04-06T11:48:28.875Z,12.70
2019-04-06T11:51:12.470Z,12.20
2019-04-06T11:53:46.687Z,12.53
2019-04-06T11:56:17.998Z,12.37
2019-04-06T11:58:58.560Z,12.80
2019-04-06T12:01:32.556Z,23.33
2019-04-06T12:04:18.131Z,14.00
2019-04-06T12:06:52.726Z,65.20
2019-04-06T12:09:32.959Z,13.27
2019-04-06T12:12:16.541Z,16.17
2019-04-06T12:14:50.724Z,14.13
2019-04-06T12:17:40.146Z,12.30
2019-04-06T12:20:23.919Z,13.07
2019-04-06T12:23:13.346Z,12.00
2019-04-06T12:25:56.424Z,12.93
2019-04-06T12:28:39.927Z,11.93
2019-04-06T12:31:17.018Z,11.13
2019-04-06T12:33:48.295Z,11.87
2019-04-06T12:36:19.642Z,11.30
2019-04-06T12:38:54.031Z,11.50
2019-04-06T12:41:28.156Z,11.23
2019-04-06T12:44:14.511Z,71.27
2019-04-06T12:46:46.560Z,66.07
2019-04-06T12:49:34.067Z,17.90
2019-04-06T12:52:14.815Z,29.37
2019-04-06T12:54:55.699Z,15.37
2019-04-06T12:57:42.155Z,14.43
2019-04-06T13:00:29.753Z,13.37
2019-04-06T13:03:10.245Z,11.40
2019-04-06T13:05:47.178Z,9.93
2019-04-06T13:08:24.451Z,10.23
2019-04-06T13:11:12.299Z,11.00
2019-04-06T13:13:56.023Z,13.17
2019-04-06T13:16:27.265Z,10.40
2019-04-06T13:19:04.438Z,10.00
2019-04-06T13:21:52.127Z,10.37
2019-04-06T13:24:29.105Z,9.70
2019-04-06T13:27:03.415Z,9.73
2019-04-06T13:29:43.233Z,10.33
2019-04-06T13:32:30.919Z,10.40
2019-04-06T13:35:18.565Z,24.70
2019-04-06T13:37:52.840Z,91.37
2019-04-06T13:40:41.667Z,16.02
2019-04-06T13:43:13.160Z,9.60
2019-04-06T13:45:59.732Z,9.35
2019-04-06T13:48:45.986Z,11.55
2019-04-06T13:51:19.834Z,8.90
2019-04-06T13:54:03.485Z,9.25
2019-04-06T13:56:46.606Z,9.58
2019-04-06T13:59:34.262Z,9.70
2019-04-06T14:02:14.282Z,9.65
2019-04-06T14:05:01.511Z,9.00
2019-04-06T14:07:48.942Z,9.90
2019-04-06T14:10:20.240Z,9.60
2019-04-06T14:13:02.497Z,8.98
2019-04-06T14:15:45.841Z,9.70
2019-04-06T14:18:23.271Z,9.70
2019-04-06T14:21:10.555Z,9.27
2019-04-06T14:23:44.806Z,9.03
2019-04-06T14:26:32.131Z,9.50
2019-04-06T14:29:03.744Z,9.33
2019-04-06T14:31:50.914Z,8.73
2019-04-06T14:34:40.250Z,9.67
2019-04-06T14:37:20.463Z,9.10
2019-04-06T14:39:51.748Z,9.60
2019-04-06T14:42:41.437Z,9.10
2019-04-06T14:45:21.795Z,9.30
2019-04-06T14:47:59.077Z,8.50
2019-04-06T14:50:39.626Z,9.60
2019-04-06T14:53:11.469Z,8.93
2019-04-06T14:55:45.799Z,8.87
2019-04-06T14:58:17.112Z,9.27
2019-04-06T15:01:05.103Z,44.43
2019-04-06T15:03:36.713Z,20.77
2019-04-06T15:06:19.591Z,9.53
2019-04-06T15:08:52.003Z,9.37
2019-04-06T15:11:23.366Z,9.97
2019-04-06T15:13:57.803Z,9.37
2019-04-06T15:16:29.079Z,9.67
2019-04-06T15:19:09.402Z,10.20
2019-04-06T15:21:43.770Z,10.17
2019-04-06T15:24:21.238Z,9.90
2019-04-06T15:26:58.805Z,10.60
2019-04-06T15:29:33.205Z,10.73
2019-04-06T15:32:13.648Z,9.70
2019-04-06T15:34:45.047Z,11.50
2019-04-06T15:37:28.131Z,11.67
2019-04-06T15:40:15.233Z,12.33
2019-04-06T15:42:46.513Z,11.60
2019-04-06T15:45:33.148Z,22.77
2019-04-06T15:48:20.544Z,25.23
2019-04-06T15:51:08.845Z,12.17
2019-04-06T15:53:42.938Z,10.97
2019-04-06T15:56:14.208Z,10.97
2019-04-06T15:58:48.232Z,12.07
2019-04-06T16:01:22.736Z,12.20
2019-04-06T16:03:57.103Z,13.17
2019-04-06T16:06:28.494Z,15.47
2019-04-06T16:09:16.643Z,14.97
2019-04-06T16:12:05.149Z,16.60
2019-04-06T16:14:39.436Z,13.93
2019-04-06T16:17:10.709Z,46.83
2019-04-06T16:19:41.977Z,42.00
2019-04-06T16:22:13.318Z,14.30
2019-04-06T16:24:44.695Z,13.73
2019-04-06T16:27:16.027Z,14.57
2019-04-06T16:29:57.503Z,14.50
2019-04-06T16:32:37.779Z,13.83
2019-04-06T16:35:27.333Z,14.33
2019-04-06T16:38:07.834Z,14.80
2019-04-06T16:40:55.607Z,17.67
2019-04-06T16:43:32.119Z,30.03
2019-04-06T16:46:19.041Z,16.40
2019-04-06T16:48:59.593Z,17.63
2019-04-06T16:51:30.853Z,25.50
2019-04-06T16:54:18.147Z,22.57
2019-04-06T16:56:52.166Z,18.97
2019-04-06T16:59:25.900Z,21.13
2019-04-06T17:02:06.070Z,21.87
2019-04-06T17:04:40.638Z,23.57
2019-04-06T17:07:17.764Z,40.57
2019-04-06T17:10:00.673Z,22.47
2019-04-06T17:12:31.983Z,22.93
2019-04-06T17:15:20.024Z,51.80
2019-04-06T17:17:51.358Z,41.13
2019-04-06T17:20:28.693Z,33.10
2019-04-06T17:23:02.435Z,32.60
2019-04-06T17:25:53.049Z,32.90
2019-04-06T17:28:29.882Z,31.27
2019-04-06T17:31:13.329Z,36.10
2019-04-06T17:33:44.854Z,34.13
2019-04-06T17:36:34.198Z,38.87
2019-04-06T17:39:23.372Z,42.70
2019-04-06T17:41:57.552Z,43.43
2019-04-06T17:44:37.833Z,43.97
2019-04-06T17:47:25.379Z,42.40
2019-04-06T17:50:02.480Z,44.83
2019-04-06T17:52:37.049Z,55.40
2019-04-06T17:55:12.440Z,78.73
2019-04-06T17:58:01.698Z,78.27
2019-04-06T18:00:50.329Z,61.27
2019-04-06T18:03:36.901Z,75.13
2019-04-06T18:06:24.715Z,85.57
2019-04-06T18:08:55.990Z,75.00
2019-04-06T18:11:27.269Z,70.43
2019-04-06T18:13:57.572Z,80.87
2019-04-06T18:16:30.052Z,152.30
2019-04-06T18:19:00.263Z,73.23
2019-04-06T18:21:30.230Z,72.97
2019-04-06T18:24:02.048Z,82.27
2019-04-06T18:26:31.780Z,87.97
2019-04-06T18:29:01.767Z,85.20
2019-04-06T18:31:33.840Z,81.27
2019-04-06T18:34:05.237Z,75.17
2019-04-06T18:36:48.485Z,78.73
2019-04-06T18:39:22.963Z,88.20
2019-04-06T18:41:53.563Z,75.13
2019-04-06T18:44:23.426Z,82.57
2019-04-06T18:46:56.613Z,63.20
2019-04-06T18:49:28.324Z,57.30
2019-04-06T18:51:58.343Z,116.17
2019-04-06T18:54:28.169Z,205.80
2019-04-06T18:56:58.079Z,67.50
2019-04-06T18:59:27.698Z,60.00
2019-04-06T19:01:58.864Z,53.13
2019-04-06T19:04:29.368Z,49.03
2019-04-06T19:07:03.810Z,73.07
2019-04-06T19:09:35.177Z,85.53
2019-04-06T19:12:05.336Z,68.93
2019-04-06T19:14:35.104Z,64.13
2019-04-06T19:17:04.818Z,65.30
2019-04-06T19:19:34.513Z,55.13
2019-04-06T19:22:04.684Z,138.70
2019-04-06T19:24:34.417Z,193.73
2019-04-06T19:27:04.451Z,135.50
2019-04-06T19:29:34.121Z,132.80
2019-04-06T19:32:06.976Z,130.13
2019-04-06T19:34:37.304Z,90.73
2019-04-06T19:37:12.431Z,78.27
2019-04-06T19:39:42.273Z,61.87
2019-04-06T19:42:12.082Z,47.47
2019-04-06T19:44:42.522Z,47.63
2019-04-06T19:47:12.123Z,32.53
2019-04-06T19:49:42.575Z,31.83
2019-04-06T19:52:12.405Z,48.73
2019-04-06T19:54:42.366Z,66.70
2019-04-06T19:57:17.440Z,42.73
2019-04-06T19:59:48.787Z,43.97
2019-04-06T20:02:22.044Z,59.27
2019-04-06T20:04:51.890Z,50.80
2019-04-06T20:07:21.995Z,118.80
2019-04-06T20:09:52.138Z,68.23
2019-04-06T20:12:21.923Z,58.67
2019-04-06T20:14:51.708Z,53.20
2019-04-06T20:17:22.439Z,36.53
2019-04-06T20:19:52.203Z,32.43
2019-04-06T20:22:22.948Z,43.40
2019-04-06T20:24:53.161Z,38.60
2019-04-06T20:27:23.264Z,45.77
2019-04-06T20:29:53.515Z,34.83
2019-04-06T20:32:23.518Z,49.73
2019-04-06T20:34:53.628Z,43.00
2019-04-06T20:37:23.470Z,34.70
2019-04-06T20:39:54.158Z,29.60
2019-04-06T20:42:23.957Z,76.97
2019-04-06T20:44:53.875Z,83.40
2019-04-06T20:47:26.718Z,40.20
2019-04-06T20:49:58.183Z,34.50
2019-04-06T20:52:28.162Z,32.77
2019-04-06T20:54:58.131Z,30.53
2019-04-06T20:57:28.388Z,29.13
2019-04-06T20:59:58.093Z,28.80
2019-04-06T21:02:27.806Z,27.77
2019-04-06T21:04:57.545Z,32.33
2019-04-06T21:07:27.301Z,28.97
2019-04-06T21:09:57.165Z,32.50
2019-04-06T21:12:27.504Z,29.27
2019-04-06T21:14:57.229Z,27.87
2019-04-06T21:17:30.171Z,25.50
2019-04-06T21:20:00.074Z,23.33
2019-04-06T21:22:29.719Z,20.57
2019-04-06T21:24:59.675Z,21.77
2019-04-06T21:27:29.329Z,22.83
2019-04-06T21:29:59.583Z,22.50
2019-04-06T21:32:29.339Z,22.30
2019-04-06T21:34:59.225Z,22.73
2019-04-06T21:37:29.929Z,24.97
2019-04-06T21:39:59.907Z,22.67
2019-04-06T21:42:30.267Z,20.43
2019-04-06T21:44:59.992Z,22.27
2019-04-06T21:47:29.800Z,20.23
2019-04-06T21:50:00.233Z,21.37
2019-04-06T21:52:30.341Z,22.23
2019-04-06T21:55:00.144Z,20.43
2019-04-06T21:57:29.837Z,18.57
2019-04-06T21:59:59.591Z,17.83
2019-04-06T22:02:30.806Z,17.53
2019-04-06T22:05:01.160Z,17.07
2019-04-06T22:07:33.736Z,16.73
2019-04-06T22:10:07.830Z,15.87
2019-04-06T22:12:37.803Z,16.80
2019-04-06T22:15:07.657Z,19.33
2019-04-06T22:17:37.400Z,21.97
2019-04-06T22:20:07.444Z,25.13
2019-04-06T22:22:37.053Z,28.60
2019-04-06T22:25:07.479Z,32.33
2019-04-06T22:27:37.205Z,28.47
2019-04-06T22:30:09.703Z,21.83
2019-04-06T22:32:39.528Z,20.97
2019-04-06T22:35:12.506Z,15.90
2019-04-06T22:37:48.685Z,15.13
2019-04-06T22:40:18.583Z,14.83
2019-04-06T22:42:48.199Z,15.13
2019-04-06T22:45:21.049Z,13.33
2019-04-06T22:47:50.859Z,13.03
2019-04-06T22:50:20.933Z,16.23
2019-04-06T22:52:50.612Z,18.63
2019-04-06T22:55:20.257Z,18.90
2019-04-06T22:57:51.980Z,21.50
2019-04-06T23:00:32.632Z,22.33
2019-04-06T23:03:03.924Z,21.90
2019-04-06T23:05:35.750Z,17.43
2019-04-06T23:08:05.622Z,18.90
2019-04-06T23:10:35.253Z,20.33
2019-04-06T23:13:05.593Z,19.73
2019-04-06T23:15:35.476Z,20.83
2019-04-06T23:18:05.204Z,21.37
2019-04-06T23:20:35.257Z,18.60
2019-04-06T23:23:08.498Z,22.37
2019-04-06T23:25:38.464Z,23.60
2019-04-06T23:28:08.108Z,22.87
2019-04-06T23:30:38.770Z,21.63
2019-04-06T23:33:10.286Z,17.10
2019-04-06T23:35:41.271Z,15.10
2019-04-06T23:38:11.236Z,15.43
2019-04-06T23:40:40.953Z,13.97
2019-04-06T23:43:10.608Z,15.13
2019-04-06T23:45:40.389Z,15.97
2019-04-06T23:48:10.831Z,15.17
2019-04-06T23:50:40.642Z,14.60
2019-04-06T23:53:10.283Z,17.10
2019-04-06T23:55:39.924Z,17.93
2019-04-06T23:58:09.658Z,20.13
